Tel Aviv, Israel

7:22 AM IDT on October 02, 2014 (GMT +0300)
Ben Gurion | Change Station
CLOSE
Current Station
Airport
Location: Tel Aviv,
Elevation: 161 ft
Nearby Weather Stations

Elev 161 ft 32.01 °N, 34.89 °E | Updated 2 minutes ago

Scattered Clouds
Scattered Clouds
72 °F
Feels Like 72 °F
N
4
Wind Variable Wind from Variable

Today
High -- | Low -- °F
--% Chance of Precip.
Yesterday
High -- | Low -- °F
Precip. -- in
6:34 AM 6:24 PM
First Quarter, 54% visible
Pressure 29.95 in
Visibility 6.2 miles
Clouds Scattered Clouds 3500 ft
Dew Point 64 °F
Humidity 78%
Rainfall 0.00 in
Snow Depth Not available.
UV 0 out of 12
Pollen Not available.
Air Quality Not available.
Flu Activity Not available.
METAR LLBG 020420Z VRB03KT 9999 SCT035 22/18 Q1014 NOSIG RMK SCT080

More Conditions Fewer Conditions

Pressure 29.95 in
Visibility 6.2 miles
Clouds Scattered Clouds 3500 ft
Dew Point 64 °F
Humidity 78%
Rainfall 0.00 in
Snow Depth Not available.
UV 0 out of 12
Pollen Not available.
Air Quality Not available.
Flu Activity Not available.
METAR LLBG 020420Z VRB03KT 9999 SCT035 22/18 Q1014 NOSIG RMK SCT080

More Conditions Fewer Conditions

10-Day Weather Forecast

Almanac

Astronomy

Oct. 02, 2014 Rise Set
Actual Time 6:34 AM IDT 6:24 PM IDT
Civil Twilight 6:10 AM IDT 6:48 PM IDT
Nautical Twilight 5:42 AM IDT 7:17 PM IDT
Astronomical Twilight 5:13 AM IDT 7:45 PM IDT
Moon 1:54 PM IDT No Moon Set
Length of Visible Light 12h 38m
Length of Day
11h 49m
Tomorrow will be 1m 56s shorter.
First Quarter, 54% of the Moon is Illuminated
Today
First Quarter
Oct 8
Full
Oct 15
Last Quarter
Oct 23
New
Oct 30
First Quarter

Yesterday's Extremes

Country Highs Country Lows

Community

WunderPhotos

Upload Photos

1,758,186 photos uploaded!

Nearby

Snow Depth

Not available.

Earthquake Activity

City Distance Mag. Time & Date
No recent earthquake activity has been reported nearby.
Minimum magnitude displayed is 2.5.

Coastal Water Temperatures

Place Temperature
No Stations Reporting

Nearby Weather Stations